Koun Maru — JK5556 — position and weather

sailwx.info

Track history (hours):
 
Tides and Currents Weather Stations Pressure Air Temp Water Temp Dewpoint Dewpoint Depression Visibility Wind Speed Wind Dir Waves Ship Positions

Koun Maru

Last reported at 2017-Apr-24 06:13 UTC. Time now 2017-Apr-29 09:20 UTC.
Position N 34°10' E 135°06'.

Length 40 m.

Type: Tanker. MMSI: 431401871.

Date/timePositionNaut miles runAvg speedWind from/ knotsBaromVisibWave heightAir tempDewpointWater temp
2017-Apr-24 06:13N 34°10' E 135°06'1 6.9
2017-Apr-24 06:00N 34°11' E 135°05'29 9.2
2017-Apr-24 02:50N 34°37' E 135°23'3 0.1
2017-Apr-23 04:08N 34°38' E 135°27'1 9.3
2017-Apr-23 04:00N 34°37' E 135°25'1 0.6
2017-Apr-23 01:29N 34°36' E 135°25'3 0.1
2017-Apr-22 04:21N 34°39' E 135°26'410.3
2017-Apr-22 04:00N 34°38' E 135°22'510.7
2017-Apr-22 03:30N 34°38' E 135°16'610.7
2017-Apr-22 02:58N 34°36' E 135°09'  
2017-Apr-18 08:26N 34°37' E 135°06'4 9.4
2017-Apr-18 07:59N 34°39' E 135°11'4 8.9
2017-Apr-18 07:30N 34°42' E 135°14'1 0.7
2017-Apr-18 05:55N 34°42' E 135°15'0 0.0
2017-Apr-18 05:07N 34°42' E 135°15'0 0.0
2017-Apr-18 04:55N 34°42' E 135°15'0 0.0
2017-Apr-18 04:19N 34°42' E 135°15'0 0.0
2017-Apr-18 03:49N 34°42' E 135°15'0 0.0
2017-Apr-18 03:23N 34°42' E 135°15'2 4.8
2017-Apr-18 03:00N 34°42' E 135°17'4 8.6
2017-Apr-18 02:29N 34°40' E 135°22'4 0.2
2017-Apr-17 06:31N 34°37' E 135°25'110.1
2017-Apr-17 06:26N 34°36' E 135°24'510.8
2017-Apr-17 05:58N 34°33' E 135°20'25 0.5
2017-Apr-15 07:33N 34°10' E 135°06'010.1
2017-Apr-15 07:30N 34°11' E 135°06'33 1.6
2017-Apr-14 10:29N 34°39' E 135°26'510.7
2017-Apr-14 10:00N 34°38' E 135°20'611.2
2017-Apr-14 09:27N 34°36' E 135°13'511.1
2017-Apr-14 08:59N 34°35' E 135°07'  
Track history (hours):
 
Tides and Currents Weather Stations Pressure Air Temp Water Temp Dewpoint Dewpoint Depression Visibility Wind Speed Wind Dir Waves Ship Positions

Koun Maru

Last reported at 2017-Apr-24 06:13 UTC. Time now 2017-Apr-29 09:20 UTC.
Position N 34°10' E 135°06'.

Length 40 m.

Type: Tanker. MMSI: 431401871.

Date/timePositionNaut miles runAvg speedWind from/ knotsBaromVisibWave heightAir tempDewpointWater temp
2017-Apr-24 06:13N 34°10' E 135°06'1 6.9
2017-Apr-24 06:00N 34°11' E 135°05'29 9.2
2017-Apr-24 02:50N 34°37' E 135°23'3 0.1
2017-Apr-23 04:08N 34°38' E 135°27'1 9.3
2017-Apr-23 04:00N 34°37' E 135°25'1 0.6
2017-Apr-23 01:29N 34°36' E 135°25'3 0.1
2017-Apr-22 04:21N 34°39' E 135°26'410.3
2017-Apr-22 04:00N 34°38' E 135°22'510.7
2017-Apr-22 03:30N 34°38' E 135°16'610.7
2017-Apr-22 02:58N 34°36' E 135°09'  
2017-Apr-18 08:26N 34°37' E 135°06'4 9.4
2017-Apr-18 07:59N 34°39' E 135°11'4 8.9
2017-Apr-18 07:30N 34°42' E 135°14'1 0.7
2017-Apr-18 05:55N 34°42' E 135°15'0 0.0
2017-Apr-18 05:07N 34°42' E 135°15'0 0.0
2017-Apr-18 04:55N 34°42' E 135°15'0 0.0
2017-Apr-18 04:19N 34°42' E 135°15'0 0.0
2017-Apr-18 03:49N 34°42' E 135°15'0 0.0
2017-Apr-18 03:23N 34°42' E 135°15'2 4.8
2017-Apr-18 03:00N 34°42' E 135°17'4 8.6
2017-Apr-18 02:29N 34°40' E 135°22'4 0.2
2017-Apr-17 06:31N 34°37' E 135°25'110.1
2017-Apr-17 06:26N 34°36' E 135°24'510.8
2017-Apr-17 05:58N 34°33' E 135°20'25 0.5
2017-Apr-15 07:33N 34°10' E 135°06'010.1
2017-Apr-15 07:30N 34°11' E 135°06'33 1.6
2017-Apr-14 10:29N 34°39' E 135°26'510.7
2017-Apr-14 10:00N 34°38' E 135°20'611.2
2017-Apr-14 09:27N 34°36' E 135°13'511.1
2017-Apr-14 08:59N 34°35' E 135°07'  

Dump ship's entire track history